Joao Paulo II Airport Ponta Delgada PT
ICAO: LPPD
IATA: PDL
Category: Large
Scheduled Services: Yes

Elevation: 259 ft
TransAlt. 6000 ft.

Airport Communications:
APP:119.4
TWR:118.3

LPPD Zoom In..

Runways:

(A) RW 12 length 7621 ft width 148 ft
---- / hdg 121

(B) RW 30 length 7621 ft width 148 ft
ILS 109.50 / hdg 301

Location; LPPD
Day. 14 / Time. 14.00 Zulu
* QNH: 1025
* Temperature: 23° c. 73.4°f.
* Wind from: 170° Speed 06 kn with Gusts up to 18 kn.
Dewpoint: 19° c.
Visibility: 10 km or more.
Clouds: Few 1800 ft.
Clouds: Broken 4500 ft.

LPPD 141400Z 17006G18KT 030V200 9999 FEW018 BKN045 23/19 Q1025


Wind From 170°
Speed 06 kn.

 
 
jpsmedia.com for Web Design worldairports.se 2018   terms of use